Observations for STORNOWAY, United Kingdom (EGPO)

EGPO 280450Z AUTO 09011KT 9999 NCD 12/10 Q1006  
EGPO 280420Z AUTO 09009KT 9999 NCD 11/10 Q1006  
EGPO 280350Z AUTO 09009KT 9999 NCD 11/09 Q1006  
EGPO 280320Z AUTO 09011KT 9999 NCD 11/09 Q1006  
EGPO 280250Z AUTO 09010KT 9999 NCD 11/10 Q1006  
EGPO 280220Z AUTO 09010KT 9999 NCD 11/10 Q1006  
EGPO 280150Z AUTO 09012KT 9999 NCD 11/10 Q1006  
EGPO 280120Z AUTO 10013KT 9999 NCD 12/10 Q1006  
EGPO 280050Z AUTO 09012KT 9999 NCD 12/10 Q1006  
EGPO 280020Z AUTO 09012KT 9999 NCD 12/10 Q1006  
EGPO 272350Z AUTO 09012KT 9999 FEW032/// 12/10 Q1006
EGPO 272320Z AUTO 09013KT 9999 NCD 12/10 Q1006  
EGPO 272250Z AUTO 09012KT //// // NCD 12/10 Q1007   
EGPO 272220Z AUTO 09013KT 9999 NCD 12/09 Q1007  
EGPO 272150Z AUTO 09013KT 9999 NCD 12/10 Q1007  
EGPO 272120Z AUTO 09013KT 9999 SCT031/// 12/09 Q1007
EGPO 272050Z AUTO 09015KT 9999 FEW033/// 12/09 Q1006
EGPO 272020Z AUTO 09016KT 9999 SCT033/// 12/10 Q1006
EGPO 271950Z 09017KT 9999 FEW014 SCT038 13/10 Q1006 
EGPO 271920Z 09016KT 9999 FEW015 SCT038 13/10 Q1006 
EGPO 271850Z 09016KT 9999 FEW025 SCT041 13/10 Q1006 
EGPO 271820Z 09016KT 9999 FEW025 SCT046 13/10 Q1006 
EGPO 271750Z 09016KT 9999 FEW020 SCT046 14/10 Q1006 
EGPO 271720Z 09016KT 9999 FEW020 BKN042 14/10 Q1007 
EGPO 271650Z 09017KT 9999 FEW020 SCT042 14/10 Q1007 
EGPO 271620Z 09016KT 9999 FEW022 14/10 Q1007
EGPO 271550Z 09016KT 9999 FEW022 14/10 Q1007
EGPO 271520Z 10017KT 9999 FEW018 SCT045 15/10 Q1007 
EGPO 271450Z 09016KT 9999 FEW018 14/10 Q1007
EGPO 271420Z 10017KT 9999 FEW018 15/10 Q1008
EGPO 271350Z 10016KT 9999 FEW012 SCT045 14/10 Q1008 
EGPO 271320Z 10016KT 9999 FEW012 SCT046 14/10 Q1008 
EGPO 271250Z 10015KT 9999 VCSH FEW012 13/10 Q1008   
EGPO 271220Z 10017KT 9999 FEW012 13/09 Q1008
EGPO 271150Z 10018KT 9999 -RA FEW012 14/09 Q1008
EGPO 271120Z 10017KT 9999 FEW012 14/09 Q1008
EGPO 271050Z 10018KT 9999 FEW012 13/09 Q1009
EGPO 271020Z 10017KT 9999 -RA FEW012 13/10 Q1009
EGPO 270950Z 10013KT 9999 -RA FEW012 13/09 Q1009
EGPO 270920Z 10012KT 9999 -RA FEW012 13/10 Q1009
EGPO 270850Z 10012KT 9999 FEW012 12/09 Q1009
EGPO 270820Z 10014KT 9999 FEW012 12/09 Q1009
EGPO 270750Z 11013KT 9999 FEW009 SCT048 12/09 Q1010 
EGPO 270720Z 10012KT 9999 FEW009 SCT048 12/09 Q1010 
EGPO 270650Z 10010KT 9999 FEW009 SCT048 12/09 Q1010 
EGPO 270620Z 10010KT 9999 FEW008 BKN048 12/09 Q1010 
EGPO 270550Z 10010KT 9999 FEW008 BKN040 12/09 Q1010 
EGPO 270520Z 11010KT 9999 FEW008 BKN045 12/09 Q1010 
EGPO 270450Z AUTO 11011KT 9999 BKN048/// 11/09 Q1010